createdAt,value
2023-03-16T00:00:45.855Z,97701.69
2023-03-16T00:03:19.119Z,97710.84
2023-03-16T00:05:49.826Z,97704.16
2023-03-16T00:08:17.611Z,97709.97
2023-03-16T00:10:47.564Z,97713.97
2023-03-16T00:13:14.901Z,97718.53
2023-03-16T00:15:41.906Z,97717.81
2023-03-16T00:18:08.458Z,97722.84
2023-03-16T00:20:35.260Z,97724.66
2023-03-16T00:23:02.747Z,97724.19
2023-03-16T00:25:29.714Z,97721.06
2023-03-16T00:27:56.176Z,97718.03
2023-03-16T00:30:22.952Z,97718.28
2023-03-16T00:32:49.510Z,97716.03
2023-03-16T00:35:17.207Z,97722.72
2023-03-16T00:37:44.324Z,97726.81
2023-03-16T00:40:12.608Z,97726.94
2023-03-16T00:42:39.126Z,97734.97
2023-03-16T00:45:05.976Z,97739.91
2023-03-16T00:47:34.792Z,97748.56
2023-03-16T00:50:01.834Z,97735.16
2023-03-16T00:52:28.897Z,97732.06
2023-03-16T00:54:57.577Z,97738.66
2023-03-16T00:57:25.200Z,97739.03
2023-03-16T00:59:52.504Z,97738.44
2023-03-16T01:02:23.268Z,97728.19
2023-03-16T01:04:50.400Z,97738.41
2023-03-16T01:07:16.895Z,97734.34
2023-03-16T01:09:43.956Z,97739.78
2023-03-16T01:12:16.173Z,97738.84
2023-03-16T01:14:47.548Z,97740.34
2023-03-16T01:17:15.452Z,97746.34
2023-03-16T01:19:42.784Z,97751.97
2023-03-16T01:22:11.691Z,97745.84
2023-03-16T01:24:39.318Z,97744.00
2023-03-16T01:27:06.179Z,97740.22
2023-03-16T01:29:33.135Z,97737.03
2023-03-16T01:32:00.322Z,97736.88
2023-03-16T01:34:27.070Z,97743.69
2023-03-16T01:36:54.348Z,97739.28
2023-03-16T01:39:30.998Z,97752.38
2023-03-16T01:41:57.615Z,97751.28
2023-03-16T01:44:30.423Z,97750.75
2023-03-16T01:47:00.565Z,97753.25
2023-03-16T01:49:29.984Z,97753.28
2023-03-16T01:52:02.630Z,97760.06
2023-03-16T01:54:33.890Z,97752.19
2023-03-16T01:57:39.233Z,97755.78
2023-03-16T02:00:23.556Z,97757.50
2023-03-16T02:03:11.614Z,97761.41
2023-03-16T02:05:48.864Z,97764.69
2023-03-16T02:08:16.635Z,97764.91
2023-03-16T02:10:45.003Z,97765.84
2023-03-16T02:13:12.633Z,97768.13
2023-03-16T02:15:39.595Z,97768.66
2023-03-16T02:18:07.746Z,97774.75
2023-03-16T02:20:37.647Z,97772.09
2023-03-16T02:23:05.855Z,97773.81
2023-03-16T02:25:35.356Z,97776.84
2023-03-16T02:28:15.463Z,97777.50
2023-03-16T02:30:44.096Z,97781.94
2023-03-16T02:33:11.374Z,97785.84
2023-03-16T02:35:37.888Z,97778.81
2023-03-16T02:38:04.562Z,97788.81
2023-03-16T02:40:36.794Z,97780.63
2023-03-16T02:43:10.756Z,97782.53
2023-03-16T02:45:55.549Z,97786.53
2023-03-16T02:48:32.260Z,97784.44
2023-03-16T02:50:59.249Z,97787.69
2023-03-16T02:53:27.244Z,97781.41
2023-03-16T02:55:55.867Z,97790.50
2023-03-16T02:58:23.042Z,97794.66
2023-03-16T03:00:49.809Z,97803.22
2023-03-16T03:03:17.140Z,97802.25
2023-03-16T03:05:43.621Z,97804.06
2023-03-16T03:08:10.181Z,97801.84
2023-03-16T03:10:37.581Z,97807.16
2023-03-16T03:13:04.072Z,97808.28
2023-03-16T03:15:30.559Z,97813.44
2023-03-16T03:18:04.865Z,97822.31
2023-03-16T03:20:31.953Z,97830.28
2023-03-16T03:22:58.487Z,97820.16
2023-03-16T03:25:25.192Z,97821.00
2023-03-16T03:27:57.051Z,97823.22
2023-03-16T03:30:24.920Z,97822.72
2023-03-16T03:32:54.405Z,97823.09
2023-03-16T03:35:21.479Z,97832.19
2023-03-16T03:37:48.320Z,97835.81
2023-03-16T03:40:17.089Z,97841.81
2023-03-16T03:42:47.086Z,97837.09
2023-03-16T03:45:13.915Z,97841.78
2023-03-16T03:47:41.569Z,97838.75
2023-03-16T03:50:12.411Z,97844.03
2023-03-16T03:52:48.695Z,97845.63
2023-03-16T03:55:15.273Z,97846.63
2023-03-16T03:57:41.711Z,97853.38
2023-03-16T04:00:11.628Z,97851.94
2023-03-16T04:02:42.116Z,97854.31
2023-03-16T04:05:17.729Z,97860.75
2023-03-16T04:07:45.750Z,97861.78
2023-03-16T04:10:13.570Z,97872.09
2023-03-16T04:12:42.485Z,97860.72
2023-03-16T04:15:12.561Z,97865.47
2023-03-16T04:17:57.793Z,97863.94
2023-03-16T04:20:25.746Z,97875.13
2023-03-16T04:22:58.371Z,97885.69
2023-03-16T04:25:26.663Z,97880.81
2023-03-16T04:27:53.621Z,97881.59
2023-03-16T04:30:24.206Z,97887.41
2023-03-16T04:32:54.966Z,97888.44
2023-03-16T04:35:22.228Z,97892.38
2023-03-16T04:37:52.932Z,97888.88
2023-03-16T04:40:24.485Z,97886.41
2023-03-16T04:42:59.446Z,97902.03
2023-03-16T04:45:26.713Z,97897.75
2023-03-16T04:47:56.592Z,97895.78
2023-03-16T04:50:23.492Z,97896.63
2023-03-16T04:52:53.076Z,97898.00
2023-03-16T04:55:20.705Z,97918.81
2023-03-16T04:57:47.313Z,97917.59
2023-03-16T05:00:21.026Z,97930.97
2023-03-16T05:02:59.333Z,97930.78
2023-03-16T05:05:25.903Z,97933.44
2023-03-16T05:07:52.453Z,97926.69
2023-03-16T05:10:19.346Z,97933.56
2023-03-16T05:12:46.857Z,97925.88
2023-03-16T05:15:13.861Z,97929.13
2023-03-16T05:17:42.263Z,97925.72
2023-03-16T05:20:14.063Z,97933.56
2023-03-16T05:22:48.150Z,97934.41
2023-03-16T05:25:25.125Z,97931.34
2023-03-16T05:27:54.351Z,97929.81
2023-03-16T05:30:31.144Z,97929.81
2023-03-16T05:33:00.605Z,97933.03
2023-03-16T05:35:28.400Z,97940.09
2023-03-16T05:37:59.727Z,97949.50
2023-03-16T05:40:28.165Z,97951.56
2023-03-16T05:43:04.710Z,97951.88
2023-03-16T05:45:35.190Z,97971.41
2023-03-16T05:48:08.355Z,97961.28
2023-03-16T05:50:42.007Z,97964.56
2023-03-16T05:53:08.991Z,97954.97
2023-03-16T05:55:37.278Z,97957.34
2023-03-16T05:58:06.232Z,97959.75
2023-03-16T06:00:35.145Z,97963.50
2023-03-16T06:03:11.408Z,97965.44
2023-03-16T06:05:38.535Z,97957.75
2023-03-16T06:08:05.615Z,97960.50
2023-03-16T06:10:32.613Z,97957.97
2023-03-16T06:13:00.006Z,97962.91
2023-03-16T06:15:29.905Z,97961.66
2023-03-16T06:17:58.714Z,97965.28
2023-03-16T06:20:25.267Z,97971.50
2023-03-16T06:22:51.740Z,97964.50
2023-03-16T06:25:18.723Z,97976.59
2023-03-16T06:27:46.545Z,97974.81
2023-03-16T06:30:16.510Z,97978.75
2023-03-16T06:32:45.344Z,97984.13
2023-03-16T06:35:12.687Z,97986.53
2023-03-16T06:37:44.297Z,97992.91
2023-03-16T06:40:29.767Z,98000.19
2023-03-16T06:42:57.085Z,97996.94
2023-03-16T06:45:25.596Z,97997.53
2023-03-16T06:47:53.124Z,98001.22
2023-03-16T06:50:19.807Z,98009.66
2023-03-16T06:52:46.326Z,98007.53
2023-03-16T06:55:14.412Z,98005.31
2023-03-16T06:57:44.726Z,98005.38
2023-03-16T07:00:14.077Z,98008.00
2023-03-16T07:02:41.093Z,98007.47
2023-03-16T07:05:11.104Z,98019.44
2023-03-16T07:07:37.710Z,98011.38
2023-03-16T07:10:04.331Z,98021.00
2023-03-16T07:12:31.420Z,98012.38
2023-03-16T07:14:57.922Z,98023.41
2023-03-16T07:17:25.413Z,98014.81
2023-03-16T07:19:52.479Z,98024.56
2023-03-16T07:22:19.112Z,98025.06
2023-03-16T07:24:45.824Z,98028.56
2023-03-16T07:27:13.140Z,98021.00
2023-03-16T07:29:41.363Z,98018.06
2023-03-16T07:32:09.124Z,98013.16
2023-03-16T07:34:38.076Z,98012.97
2023-03-16T07:37:05.308Z,98009.38
2023-03-16T07:39:32.983Z,98012.88
2023-03-16T07:42:06.322Z,98005.09
2023-03-16T07:44:52.079Z,98007.72
2023-03-16T07:47:19.276Z,98011.34
2023-03-16T07:49:46.108Z,98004.88
2023-03-16T07:52:15.302Z,98005.88
2023-03-16T07:54:43.343Z,98002.66
2023-03-16T07:57:11.933Z,97998.22
2023-03-16T07:59:41.805Z,98010.88
2023-03-16T08:02:15.285Z,98004.94
2023-03-16T08:04:42.522Z,98008.19
2023-03-16T08:07:10.039Z,98014.19
2023-03-16T08:09:55.326Z,98022.97
2023-03-16T08:12:31.949Z,98011.84
2023-03-16T08:14:59.187Z,98023.00
2023-03-16T08:17:29.400Z,98014.00
2023-03-16T08:19:57.509Z,98013.31
2023-03-16T08:22:24.462Z,98011.72
2023-03-16T08:24:51.977Z,98016.13
2023-03-16T08:27:20.446Z,98015.47
2023-03-16T08:29:53.786Z,98018.41
2023-03-16T08:32:23.766Z,98025.28
2023-03-16T08:34:50.437Z,98020.75
2023-03-16T08:37:17.817Z,98023.72
2023-03-16T08:39:45.552Z,98027.81
2023-03-16T08:42:16.765Z,98017.06
2023-03-16T08:44:47.798Z,98026.09
2023-03-16T08:47:14.978Z,98018.94
2023-03-16T08:49:44.773Z,98019.66
2023-03-16T08:52:14.079Z,98020.66
2023-03-16T08:54:47.105Z,98022.66
2023-03-16T08:57:19.414Z,98028.97
2023-03-16T08:59:45.940Z,98021.28
2023-03-16T09:02:14.315Z,98025.25
2023-03-16T09:04:40.841Z,98033.81
2023-03-16T09:07:09.759Z,98028.91
2023-03-16T09:09:36.635Z,98030.28
2023-03-16T09:12:04.427Z,98021.53
2023-03-16T09:14:31.114Z,98037.03
2023-03-16T09:16:57.682Z,98031.63
2023-03-16T09:19:25.013Z,98028.09
2023-03-16T09:21:51.539Z,98029.06
2023-03-16T09:24:18.006Z,98030.00
2023-03-16T09:26:45.204Z,98034.88
2023-03-16T09:29:11.976Z,98041.69
2023-03-16T09:31:38.646Z,98039.13
2023-03-16T09:34:05.199Z,98038.22
2023-03-16T09:36:31.862Z,98035.50
2023-03-16T09:38:58.349Z,98048.53
2023-03-16T09:41:34.465Z,98046.75
2023-03-16T09:44:19.963Z,98055.16
2023-03-16T09:46:48.601Z,98055.47
2023-03-16T09:49:16.778Z,98054.16
2023-03-16T09:51:48.835Z,98053.06
2023-03-16T09:54:39.096Z,98046.34
2023-03-16T09:57:11.596Z,98042.78
2023-03-16T09:59:38.027Z,98040.94
2023-03-16T10:02:10.871Z,98049.75
2023-03-16T10:04:46.258Z,98043.88
2023-03-16T10:07:20.026Z,98043.34
2023-03-16T10:09:49.513Z,98052.13
2023-03-16T10:12:16.073Z,98051.97
2023-03-16T10:14:42.738Z,98046.56
2023-03-16T10:17:09.491Z,98046.66
2023-03-16T10:19:51.246Z,98046.53
2023-03-16T10:22:22.730Z,98053.75
2023-03-16T10:25:01.982Z,98048.63
2023-03-16T10:27:32.726Z,98054.00
2023-03-16T10:30:01.222Z,98048.03
2023-03-16T10:32:31.616Z,98039.22
2023-03-16T10:35:01.244Z,98051.13
2023-03-16T10:37:30.139Z,98042.75
2023-03-16T10:39:57.263Z,98038.97
2023-03-16T10:42:24.973Z,98043.75
2023-03-16T10:44:56.917Z,98051.66
2023-03-16T10:47:24.836Z,98059.84
2023-03-16T10:49:51.495Z,98055.00
2023-03-16T10:52:20.016Z,98051.44
2023-03-16T10:55:11.140Z,98055.19
2023-03-16T10:57:41.566Z,98054.25
2023-03-16T11:00:13.953Z,98056.28
2023-03-16T11:02:40.938Z,98054.81
2023-03-16T11:05:26.016Z,98053.47
2023-03-16T11:08:04.786Z,98048.66
2023-03-16T11:10:36.129Z,98054.41
2023-03-16T11:13:08.760Z,98048.38
2023-03-16T11:15:47.906Z,98040.63
2023-03-16T11:18:43.922Z,98042.28
2023-03-16T11:21:19.517Z,98034.97
2023-03-16T11:23:51.280Z,98019.69
2023-03-16T11:26:21.309Z,98033.56
2023-03-16T11:28:51.662Z,98032.66
2023-03-16T11:31:27.585Z,98028.78
2023-03-16T11:33:57.417Z,98031.97
2023-03-16T11:36:29.900Z,98031.66
2023-03-16T11:39:04.973Z,98030.22
2023-03-16T11:41:44.407Z,98026.81
2023-03-16T11:44:10.868Z,98022.97
2023-03-16T11:46:37.345Z,98027.03
2023-03-16T11:49:22.642Z,98018.69
2023-03-16T11:51:58.713Z,98021.25
2023-03-16T11:54:50.286Z,98004.81
2023-03-16T11:57:29.066Z,98010.53
2023-03-16T12:00:01.409Z,97997.91
2023-03-16T12:02:48.393Z,98003.09
2023-03-16T12:05:24.126Z,97996.00
2023-03-16T12:07:54.115Z,97993.91
2023-03-16T12:10:26.554Z,97993.97
2023-03-16T12:13:00.514Z,97986.22
2023-03-16T12:15:30.925Z,97990.63
2023-03-16T12:18:02.755Z,97979.06
2023-03-16T12:20:45.970Z,97979.63
2023-03-16T12:23:32.738Z,97967.16
2023-03-16T12:26:00.426Z,97975.00
2023-03-16T12:28:31.467Z,97957.34
2023-03-16T12:31:09.373Z,97964.72
2023-03-16T12:33:50.441Z,97961.84
2023-03-16T12:36:16.913Z,97963.19
2023-03-16T12:38:43.369Z,97963.22
2023-03-16T12:41:17.971Z,97957.19
2023-03-16T12:44:04.254Z,97954.53
2023-03-16T12:46:49.734Z,97961.16
2023-03-16T12:49:16.723Z,97951.94
2023-03-16T12:51:43.981Z,97954.13
2023-03-16T12:54:21.211Z,97948.38
2023-03-16T12:56:49.379Z,97933.03
2023-03-16T12:59:18.373Z,97934.50
2023-03-16T13:01:45.894Z,97933.47
2023-03-16T13:04:15.521Z,97931.81
2023-03-16T13:06:43.618Z,97935.63
2023-03-16T13:09:11.186Z,97931.41
2023-03-16T13:11:49.995Z,97929.06
2023-03-16T13:14:38.251Z,97923.16
2023-03-16T13:17:06.472Z,97923.81
2023-03-16T13:19:37.807Z,97908.63
2023-03-16T13:22:06.139Z,97917.00
2023-03-16T13:24:37.491Z,97922.00
2023-03-16T13:27:06.491Z,97914.19
2023-03-16T13:29:33.063Z,97921.19
2023-03-16T13:32:00.982Z,97923.19
2023-03-16T13:34:38.225Z,97922.28
2023-03-16T13:37:12.307Z,97921.97
2023-03-16T13:39:40.685Z,97915.66
2023-03-16T13:42:17.864Z,97921.19
2023-03-16T13:44:44.618Z,97926.34
2023-03-16T13:47:20.377Z,97926.34
2023-03-16T13:49:48.721Z,97926.06
2023-03-16T13:52:26.780Z,97920.31
2023-03-16T13:54:53.618Z,97912.00
2023-03-16T13:57:24.125Z,97918.16
2023-03-16T13:59:50.613Z,97912.25
2023-03-16T14:02:18.189Z,97912.47
2023-03-16T14:04:44.739Z,97909.59
2023-03-16T14:07:18.399Z,97912.00
2023-03-16T14:09:46.711Z,97910.31
2023-03-16T14:12:14.697Z,97910.41
2023-03-16T14:14:41.615Z,97911.03
2023-03-16T14:17:12.432Z,97910.09
2023-03-16T14:19:45.625Z,97923.00
2023-03-16T14:22:18.128Z,97912.59
2023-03-16T14:24:46.088Z,97917.97
2023-03-16T14:27:15.942Z,97917.91
2023-03-16T14:29:43.364Z,97920.38
2023-03-16T14:32:30.064Z,97907.66
2023-03-16T14:35:11.022Z,97908.88
2023-03-16T14:37:38.382Z,97909.78
2023-03-16T14:40:20.666Z,97908.88
2023-03-16T14:42:47.436Z,97914.78
2023-03-16T14:45:15.505Z,97915.25
2023-03-16T14:47:43.060Z,97922.00
2023-03-16T14:50:13.709Z,97917.78
2023-03-16T14:52:40.618Z,97919.31
2023-03-16T14:55:12.100Z,97907.81
2023-03-16T14:57:40.468Z,97915.38
2023-03-16T15:00:10.284Z,97907.53
2023-03-16T15:02:36.865Z,97907.28
2023-03-16T15:05:03.755Z,97917.41
2023-03-16T15:07:32.282Z,97916.59
2023-03-16T15:10:22.064Z,97909.97
2023-03-16T15:12:54.580Z,97917.22
2023-03-16T15:15:23.024Z,97923.66
2023-03-16T15:17:50.657Z,97915.06
2023-03-16T15:20:18.585Z,97918.59
2023-03-16T15:22:45.840Z,97913.38
2023-03-16T15:25:27.987Z,97912.13
2023-03-16T15:27:54.559Z,97910.78
2023-03-16T15:30:25.812Z,97908.59
2023-03-16T15:32:52.839Z,97910.09
2023-03-16T15:35:20.052Z,97914.56
2023-03-16T15:37:46.980Z,97921.41
2023-03-16T15:40:24.515Z,97916.75
2023-03-16T15:42:51.616Z,97922.19
2023-03-16T15:45:20.548Z,97916.66
2023-03-16T15:47:51.125Z,97922.06
2023-03-16T15:50:18.899Z,97926.38
2023-03-16T15:52:59.589Z,97921.31
2023-03-16T15:55:33.187Z,97941.66
2023-03-16T15:58:00.699Z,97929.25
2023-03-16T16:00:33.096Z,97938.91
2023-03-16T16:02:59.997Z,97939.88
2023-03-16T16:05:27.251Z,97945.09
2023-03-16T16:07:54.261Z,97939.78
2023-03-16T16:10:21.097Z,97950.38
2023-03-16T16:12:51.508Z,97947.28
2023-03-16T16:15:21.750Z,97941.09
2023-03-16T16:18:09.949Z,97945.28
2023-03-16T16:20:35.830Z,97956.59
2023-03-16T16:23:03.298Z,97944.97
2023-03-16T16:25:36.274Z,97956.72
2023-03-16T16:28:02.815Z,97949.22
2023-03-16T16:30:31.275Z,97958.56
2023-03-16T16:32:58.928Z,97957.25
2023-03-16T16:35:27.966Z,97959.63
2023-03-16T16:37:54.717Z,97961.56
2023-03-16T16:40:25.949Z,97961.03
2023-03-16T16:42:53.481Z,97960.72
2023-03-16T16:45:21.812Z,97965.34
2023-03-16T16:47:52.063Z,97960.16
2023-03-16T16:50:23.009Z,97958.41
2023-03-16T16:52:50.112Z,97963.56
2023-03-16T16:55:16.832Z,97970.75
2023-03-16T16:57:43.660Z,97968.69
2023-03-16T17:00:17.378Z,97967.69
2023-03-16T17:02:45.233Z,97975.81
2023-03-16T17:05:30.032Z,97980.53
2023-03-16T17:07:56.698Z,97984.16
2023-03-16T17:10:27.134Z,97991.47
2023-03-16T17:12:55.248Z,97997.81
2023-03-16T17:15:24.904Z,97998.53
2023-03-16T17:17:52.881Z,98010.34
2023-03-16T17:20:20.800Z,98004.25
2023-03-16T17:22:48.430Z,98006.66
2023-03-16T17:25:16.424Z,98015.78
2023-03-16T17:27:44.413Z,98015.31
2023-03-16T17:30:32.216Z,98016.00
2023-03-16T17:33:12.318Z,98027.25
2023-03-16T17:35:39.342Z,98033.09
2023-03-16T17:38:19.230Z,98036.22
2023-03-16T17:40:47.037Z,98033.31
2023-03-16T17:43:15.135Z,98050.13
2023-03-16T17:45:41.841Z,98038.94
2023-03-16T17:48:16.594Z,98044.63
2023-03-16T17:50:46.074Z,98042.31
2023-03-16T17:53:16.649Z,98043.38
2023-03-16T17:55:43.799Z,98046.56
2023-03-16T17:58:29.005Z,98050.66
2023-03-16T18:00:56.302Z,98063.06
2023-03-16T18:03:25.122Z,98075.03
2023-03-16T18:05:51.821Z,98066.13
2023-03-16T18:08:23.754Z,98063.56
2023-03-16T18:10:51.785Z,98072.41
2023-03-16T18:13:18.308Z,98076.78
2023-03-16T18:15:46.743Z,98078.59
2023-03-16T18:18:17.637Z,98077.25
2023-03-16T18:20:44.741Z,98075.50
2023-03-16T18:23:30.706Z,98065.88
2023-03-16T18:26:03.596Z,98057.34
2023-03-16T18:28:31.147Z,98061.00
2023-03-16T18:30:58.319Z,98062.94
2023-03-16T18:33:33.604Z,98070.53
2023-03-16T18:36:01.527Z,98078.84
2023-03-16T18:38:30.652Z,98086.75
2023-03-16T18:40:57.795Z,98088.28
2023-03-16T18:43:26.796Z,98080.78
2023-03-16T18:45:54.884Z,98090.44
2023-03-16T18:48:29.454Z,98095.09
2023-03-16T18:50:56.463Z,98102.16
2023-03-16T18:53:23.059Z,98103.97
2023-03-16T18:55:50.275Z,98109.09
2023-03-16T18:58:18.601Z,98120.19
2023-03-16T19:00:49.315Z,98126.56
2023-03-16T19:03:38.900Z,98121.72
2023-03-16T19:06:06.193Z,98120.72
2023-03-16T19:08:34.335Z,98122.75
2023-03-16T19:11:01.946Z,98130.13
2023-03-16T19:13:28.448Z,98137.16
2023-03-16T19:15:55.895Z,98141.69
2023-03-16T19:18:24.737Z,98139.88
2023-03-16T19:20:52.692Z,98144.66
2023-03-16T19:23:23.540Z,98141.50
2023-03-16T19:25:50.771Z,98153.56
2023-03-16T19:28:22.647Z,98145.50
2023-03-16T19:30:49.177Z,98152.91
2023-03-16T19:33:20.885Z,98151.25
2023-03-16T19:35:51.914Z,98150.41
2023-03-16T19:38:19.268Z,98159.63
2023-03-16T19:40:47.306Z,98157.53
2023-03-16T19:43:18.490Z,98168.47
2023-03-16T19:45:45.607Z,98168.41
2023-03-16T19:48:16.619Z,98172.22
2023-03-16T19:50:43.105Z,98177.06
2023-03-16T19:53:14.722Z,98175.69
2023-03-16T19:55:41.367Z,98180.59
2023-03-16T19:58:14.790Z,98177.25
2023-03-16T20:00:41.934Z,98178.31
2023-03-16T20:03:11.009Z,98182.84
2023-03-16T20:05:39.639Z,98179.34
2023-03-16T20:08:13.882Z,98190.44
2023-03-16T20:10:40.730Z,98190.09
2023-03-16T20:13:10.472Z,98177.50
2023-03-16T20:15:37.541Z,98187.41
2023-03-16T20:18:04.556Z,98189.50
2023-03-16T20:20:33.551Z,98194.56
2023-03-16T20:23:00.410Z,98188.38
2023-03-16T20:25:30.653Z,98188.44
2023-03-16T20:27:59.585Z,98194.19
2023-03-16T20:30:26.609Z,98188.69
2023-03-16T20:32:53.217Z,98196.31
2023-03-16T20:35:22.774Z,98189.78
2023-03-16T20:37:50.178Z,98201.41
2023-03-16T20:40:17.133Z,98200.03
2023-03-16T20:42:43.734Z,98200.22
2023-03-16T20:45:30.967Z,98194.72
2023-03-16T20:47:57.606Z,98190.09
2023-03-16T20:50:24.261Z,98195.88
2023-03-16T20:52:51.520Z,98205.00
2023-03-16T20:55:20.178Z,98195.25
2023-03-16T20:57:47.641Z,98208.88
2023-03-16T21:00:17.776Z,98200.19
2023-03-16T21:02:44.564Z,98201.63
2023-03-16T21:05:12.527Z,98198.25
2023-03-16T21:07:39.033Z,98198.47
2023-03-16T21:10:05.777Z,98192.91
2023-03-16T21:12:33.662Z,98194.81
2023-03-16T21:15:02.473Z,98192.78
2023-03-16T21:17:31.228Z,98193.44
2023-03-16T21:19:58.619Z,98197.81
2023-03-16T21:22:29.965Z,98192.19
2023-03-16T21:24:56.543Z,98195.16
2023-03-16T21:27:30.758Z,98197.38
2023-03-16T21:29:58.504Z,98205.56
2023-03-16T21:32:26.584Z,98198.41
2023-03-16T21:34:53.867Z,98194.25
2023-03-16T21:37:22.318Z,98203.91
2023-03-16T21:39:49.156Z,98204.56
2023-03-16T21:42:17.211Z,98203.56
2023-03-16T21:44:43.970Z,98203.84
2023-03-16T21:47:22.079Z,98192.94
2023-03-16T21:49:48.676Z,98196.00
2023-03-16T21:52:25.409Z,98203.47
2023-03-16T21:54:52.583Z,98203.56
2023-03-16T21:57:19.760Z,98194.50
2023-03-16T21:59:46.495Z,98197.84
2023-03-16T22:02:23.638Z,98190.03
2023-03-16T22:04:51.099Z,98198.91
2023-03-16T22:07:18.263Z,98191.75
2023-03-16T22:09:44.713Z,98194.69
2023-03-16T22:12:13.414Z,98198.69
2023-03-16T22:14:40.367Z,98190.38
2023-03-16T22:17:08.508Z,98199.13
2023-03-16T22:19:35.215Z,98189.34
2023-03-16T22:22:01.739Z,98187.19
2023-03-16T22:24:30.010Z,98197.56
2023-03-16T22:26:56.788Z,98199.28
2023-03-16T22:29:30.836Z,98199.13
2023-03-16T22:32:05.456Z,98201.34
2023-03-16T22:34:52.372Z,98190.81
2023-03-16T22:37:26.308Z,98201.69
2023-03-16T22:39:53.585Z,98188.84
2023-03-16T22:42:36.222Z,98188.78
2023-03-16T22:45:03.600Z,98182.84
2023-03-16T22:47:33.830Z,98188.97
2023-03-16T22:50:00.368Z,98187.69
2023-03-16T22:52:29.705Z,98188.50
2023-03-16T22:54:57.025Z,98190.91
2023-03-16T22:57:23.545Z,98194.31
2023-03-16T22:59:50.925Z,98195.66
2023-03-16T23:02:19.510Z,98199.44
2023-03-16T23:04:46.047Z,98187.03
2023-03-16T23:07:12.965Z,98185.66
2023-03-16T23:09:39.513Z,98185.69
2023-03-16T23:12:13.643Z,98180.03
2023-03-16T23:14:40.339Z,98183.47
2023-03-16T23:17:17.731Z,98180.50
2023-03-16T23:19:44.719Z,98169.94
2023-03-16T23:22:11.529Z,98181.66
2023-03-16T23:24:38.220Z,98173.66
2023-03-16T23:27:07.157Z,98179.81
2023-03-16T23:29:33.913Z,98167.88
2023-03-16T23:32:01.184Z,98169.75
2023-03-16T23:34:27.785Z,98169.41
2023-03-16T23:36:54.322Z,98168.28
2023-03-16T23:39:20.823Z,98175.19
2023-03-16T23:41:48.497Z,98178.97
2023-03-16T23:44:20.597Z,98169.41
2023-03-16T23:46:47.398Z,98172.34
2023-03-16T23:49:19.030Z,98175.03
2023-03-16T23:51:46.005Z,98185.53
2023-03-16T23:54:23.196Z,98184.06
2023-03-16T23:56:50.601Z,98186.44
2023-03-16T23:59:17.458Z,98180.94
